sensor_id;sensor_type;location;lat;lon;timestamp;temperature;humidity
41116;DHT22;26861;51.824;4.682;2022-12-15T00:02:41;10.40;55.10
41116;DHT22;26861;51.824;4.682;2022-12-15T00:05:25;10.30;55.10
41116;DHT22;26861;51.824;4.682;2022-12-15T00:08:10;10.30;55.00
41116;DHT22;26861;51.824;4.682;2022-12-15T00:10:54;10.30;55.00
41116;DHT22;26861;51.824;4.682;2022-12-15T00:13:39;10.20;72.30
41116;DHT22;26861;51.824;4.682;2022-12-15T00:16:23;10.30;55.70
41116;DHT22;26861;51.824;4.682;2022-12-15T00:19:08;10.30;72.40
41116;DHT22;26861;51.824;4.682;2022-12-15T00:21:52;10.20;55.10
41116;DHT22;26861;51.824;4.682;2022-12-15T00:24:36;10.20;55.10
41116;DHT22;26861;51.824;4.682;2022-12-15T00:27:20;10.30;55.00
41116;DHT22;26861;51.824;4.682;2022-12-15T00:30:05;10.30;55.20
41116;DHT22;26861;51.824;4.682;2022-12-15T00:32:50;10.20;55.10
41116;DHT22;26861;51.824;4.682;2022-12-15T00:38:19;10.20;54.40
41116;DHT22;26861;51.824;4.682;2022-12-15T00:41:04;10.20;55.00
41116;DHT22;26861;51.824;4.682;2022-12-15T00:43:32;10.20;72.80
41116;DHT22;26861;51.824;4.682;2022-12-15T00:45:58;10.30;73.10
41116;DHT22;26861;51.824;4.682;2022-12-15T00:48:43;10.10;54.90
41116;DHT22;26861;51.824;4.682;2022-12-15T00:51:09;10.20;54.90
41116;DHT22;26861;51.824;4.682;2022-12-15T00:53:35;10.20;55.70
41116;DHT22;26861;51.824;4.682;2022-12-15T00:56:19;10.10;55.00
41116;DHT22;26861;51.824;4.682;2022-12-15T00:59:03;10.10;55.00
41116;DHT22;26861;51.824;4.682;2022-12-15T01:01:47;10.10;55.00
41116;DHT22;26861;51.824;4.682;2022-12-15T01:04:31;10.10;54.90
41116;DHT22;26861;51.824;4.682;2022-12-15T01:07:16;10.20;55.10
41116;DHT22;26861;51.824;4.682;2022-12-15T01:10:00;9.90;72.50
41116;DHT22;26861;51.824;4.682;2022-12-15T01:12:45;10.10;55.10
41116;DHT22;26861;51.824;4.682;2022-12-15T01:15:29;10.10;55.00
41116;DHT22;26861;51.824;4.682;2022-12-15T01:18:13;10.10;54.90
41116;DHT22;26861;51.824;4.682;2022-12-15T01:21:00;10.10;54.90
41116;DHT22;26861;51.824;4.682;2022-12-15T01:23:25;10.10;55.20
41116;DHT22;26861;51.824;4.682;2022-12-15T01:25:52;10.00;54.90
41116;DHT22;26861;51.824;4.682;2022-12-15T01:28:19;10.00;55.00
41116;DHT22;26861;51.824;4.682;2022-12-15T01:30:45;10.00;54.90
41116;DHT22;26861;51.824;4.682;2022-12-15T01:33:11;10.00;54.90
41116;DHT22;26861;51.824;4.682;2022-12-15T01:35:37;10.00;54.90
41116;DHT22;26861;51.824;4.682;2022-12-15T01:38:03;10.00;55.00
41116;DHT22;26861;51.824;4.682;2022-12-15T01:40:29;10.00;55.00
41116;DHT22;26861;51.824;4.682;2022-12-15T01:43:15;10.00;55.00
41116;DHT22;26861;51.824;4.682;2022-12-15T01:45:52;10.00;55.00
41116;DHT22;26861;51.824;4.682;2022-12-15T01:48:33;10.00;54.90
41116;DHT22;26861;51.824;4.682;2022-12-15T01:53:49;10.00;54.90
41116;DHT22;26861;51.824;4.682;2022-12-15T01:56:16;10.00;54.90
41116;DHT22;26861;51.824;4.682;2022-12-15T01:58:44;10.00;55.00
41116;DHT22;26861;51.824;4.682;2022-12-15T02:01:13;9.90;72.90
41116;DHT22;26861;51.824;4.682;2022-12-15T02:03:39;9.90;55.50
41116;DHT22;26861;51.824;4.682;2022-12-15T02:06:06;9.90;55.10
41116;DHT22;26861;51.824;4.682;2022-12-15T02:08:32;10.50;55.40
41116;DHT22;26861;51.824;4.682;2022-12-15T02:14:05;9.90;54.90
41116;DHT22;26861;51.824;4.682;2022-12-15T02:30:37;9.80;54.80
41116;DHT22;26861;51.824;4.682;2022-12-15T02:33:24;9.90;54.90
41116;DHT22;26861;51.824;4.682;2022-12-15T02:36:24;9.90;55.00
41116;DHT22;26861;51.824;4.682;2022-12-15T02:38:50;9.90;54.90
41116;DHT22;26861;51.824;4.682;2022-12-15T02:41:43;9.90;72.10
41116;DHT22;26861;51.824;4.682;2022-12-15T02:44:36;9.80;55.10
41116;DHT22;26861;51.824;4.682;2022-12-15T02:50:27;9.80;54.80
41116;DHT22;26861;51.824;4.682;2022-12-15T03:01:29;9.70;55.00
41116;DHT22;26861;51.824;4.682;2022-12-15T03:03:58;9.80;55.00
41116;DHT22;26861;51.824;4.682;2022-12-15T03:06:26;9.70;54.90
41116;DHT22;26861;51.824;4.682;2022-12-15T03:08:52;9.80;55.10
41116;DHT22;26861;51.824;4.682;2022-12-15T03:11:18;9.70;55.10
41116;DHT22;26861;51.824;4.682;2022-12-15T03:13:43;9.70;55.00
41116;DHT22;26861;51.824;4.682;2022-12-15T03:16:09;9.70;72.00
41116;DHT22;26861;51.824;4.682;2022-12-15T03:18:34;9.70;55.90
41116;DHT22;26861;51.824;4.682;2022-12-15T03:21:00;9.70;55.00
41116;DHT22;26861;51.824;4.682;2022-12-15T03:23:26;9.70;55.10
41116;DHT22;26861;51.824;4.682;2022-12-15T03:25:51;9.70;55.10
41116;DHT22;26861;51.824;4.682;2022-12-15T03:28:17;9.60;55.00
41116;DHT22;26861;51.824;4.682;2022-12-15T03:30:43;9.70;55.00
41116;DHT22;26861;51.824;4.682;2022-12-15T03:33:08;9.70;55.10
41116;DHT22;26861;51.824;4.682;2022-12-15T03:38:00;9.70;54.60
41116;DHT22;26861;51.824;4.682;2022-12-15T03:40:26;9.70;55.10
41116;DHT22;26861;51.824;4.682;2022-12-15T03:45:20;9.60;54.50
41116;DHT22;26861;51.824;4.682;2022-12-15T03:47:47;9.60;55.00
41116;DHT22;26861;51.824;4.682;2022-12-15T03:50:15;9.60;55.10
41116;DHT22;26861;51.824;4.682;2022-12-15T03:52:41;9.50;71.90
41116;DHT22;26861;51.824;4.682;2022-12-15T03:55:07;9.60;55.10
41116;DHT22;26861;51.824;4.682;2022-12-15T03:57:33;9.60;55.20
41116;DHT22;26861;51.824;4.682;2022-12-15T03:59:59;9.60;55.10
41116;DHT22;26861;51.824;4.682;2022-12-15T04:02:25;9.60;55.00
41116;DHT22;26861;51.824;4.682;2022-12-15T04:04:50;9.60;55.10
41116;DHT22;26861;51.824;4.682;2022-12-15T04:07:16;9.60;71.70
41116;DHT22;26861;51.824;4.682;2022-12-15T04:09:41;9.60;55.00
41116;DHT22;26861;51.824;4.682;2022-12-15T04:12:10;9.60;55.00
41116;DHT22;26861;51.824;4.682;2022-12-15T04:14:35;9.60;55.00
41116;DHT22;26861;51.824;4.682;2022-12-15T04:17:10;9.60;55.00
41116;DHT22;26861;51.824;4.682;2022-12-15T04:19:35;9.50;54.90
41116;DHT22;26861;51.824;4.682;2022-12-15T04:22:19;9.50;55.00
41116;DHT22;26861;51.824;4.682;2022-12-15T04:24:45;9.50;55.10
41116;DHT22;26861;51.824;4.682;2022-12-15T04:27:29;9.50;55.00
41116;DHT22;26861;51.824;4.682;2022-12-15T04:30:13;9.50;55.00
41116;DHT22;26861;51.824;4.682;2022-12-15T04:32:58;9.50;55.00
41116;DHT22;26861;51.824;4.682;2022-12-15T04:35:42;9.40;71.80
41116;DHT22;26861;51.824;4.682;2022-12-15T04:38:26;9.50;55.10
41116;DHT22;26861;51.824;4.682;2022-12-15T04:41:12;9.50;55.10
41116;DHT22;26861;51.824;4.682;2022-12-15T04:43:56;9.50;55.20
41116;DHT22;26861;51.824;4.682;2022-12-15T04:46:40;9.50;55.20
41116;DHT22;26861;51.824;4.682;2022-12-15T04:49:24;9.50;55.30
41116;DHT22;26861;51.824;4.682;2022-12-15T04:52:08;9.50;55.10
41116;DHT22;26861;51.824;4.682;2022-12-15T04:57:37;9.50;54.70
41116;DHT22;26861;51.824;4.682;2022-12-15T05:00:21;9.40;55.20
41116;DHT22;26861;51.824;4.682;2022-12-15T05:03:06;9.40;55.20
41116;DHT22;26861;51.824;4.682;2022-12-15T05:05:51;9.50;72.30
41116;DHT22;26861;51.824;4.682;2022-12-15T05:08:35;9.40;55.20
41116;DHT22;26861;51.824;4.682;2022-12-15T05:11:19;9.40;55.10
41116;DHT22;26861;51.824;4.682;2022-12-15T05:14:04;9.40;55.20
41116;DHT22;26861;51.824;4.682;2022-12-15T05:16:48;9.40;55.80
41116;DHT22;26861;51.824;4.682;2022-12-15T05:19:32;9.40;55.10
41116;DHT22;26861;51.824;4.682;2022-12-15T05:22:16;9.40;55.10
41116;DHT22;26861;51.824;4.682;2022-12-15T05:25:00;9.40;72.40
41116;DHT22;26861;51.824;4.682;2022-12-15T05:27:44;9.40;55.20
41116;DHT22;26861;51.824;4.682;2022-12-15T05:30:28;9.40;55.20
41116;DHT22;26861;51.824;4.682;2022-12-15T05:33:13;9.30;55.10
41116;DHT22;26861;51.824;4.682;2022-12-15T05:35:39;9.30;55.10
41116;DHT22;26861;51.824;4.682;2022-12-15T05:38:05;9.50;73.00
41116;DHT22;26861;51.824;4.682;2022-12-15T05:40:30;9.30;55.20
41116;DHT22;26861;51.824;4.682;2022-12-15T05:42:59;9.30;55.40
41116;DHT22;26861;51.824;4.682;2022-12-15T05:45:26;9.40;55.50
41116;DHT22;26861;51.824;4.682;2022-12-15T05:47:53;9.40;55.40
41116;DHT22;26861;51.824;4.682;2022-12-15T05:50:19;9.30;55.50
41116;DHT22;26861;51.824;4.682;2022-12-15T05:52:45;9.30;55.50
41116;DHT22;26861;51.824;4.682;2022-12-15T05:55:11;9.30;55.60
41116;DHT22;26861;51.824;4.682;2022-12-15T05:57:37;9.30;55.80
41116;DHT22;26861;51.824;4.682;2022-12-15T06:00:04;9.30;55.80
41116;DHT22;26861;51.824;4.682;2022-12-15T06:02:30;9.30;73.50
41116;DHT22;26861;51.824;4.682;2022-12-15T06:04:55;9.20;56.00
41116;DHT22;26861;51.824;4.682;2022-12-15T06:07:21;9.30;55.90
41116;DHT22;26861;51.824;4.682;2022-12-15T06:09:47;9.30;56.00
41116;DHT22;26861;51.824;4.682;2022-12-15T06:12:12;9.30;56.10
41116;DHT22;26861;51.824;4.682;2022-12-15T06:17:04;9.30;55.60
41116;DHT22;26861;51.824;4.682;2022-12-15T06:19:29;9.30;56.30
41116;DHT22;26861;51.824;4.682;2022-12-15T06:21:55;9.40;56.20
41116;DHT22;26861;51.824;4.682;2022-12-15T06:24:21;9.40;56.50
41116;DHT22;26861;51.824;4.682;2022-12-15T06:26:46;9.30;56.20
41116;DHT22;26861;51.824;4.682;2022-12-15T06:29:12;9.30;56.20
41116;DHT22;26861;51.824;4.682;2022-12-15T06:31:39;9.30;56.30
41116;DHT22;26861;51.824;4.682;2022-12-15T06:34:07;9.30;56.20
41116;DHT22;26861;51.824;4.682;2022-12-15T06:36:33;9.30;56.20
41116;DHT22;26861;51.824;4.682;2022-12-15T06:39:01;9.30;56.70
41116;DHT22;26861;51.824;4.682;2022-12-15T06:41:27;9.20;56.30
41116;DHT22;26861;51.824;4.682;2022-12-15T06:43:55;9.30;56.80
41116;DHT22;26861;51.824;4.682;2022-12-15T06:46:21;9.30;56.20
41116;DHT22;26861;51.824;4.682;2022-12-15T06:48:47;9.30;56.10
41116;DHT22;26861;51.824;4.682;2022-12-15T06:51:14;9.30;56.20
41116;DHT22;26861;51.824;4.682;2022-12-15T06:53:41;9.30;56.10
41116;DHT22;26861;51.824;4.682;2022-12-15T06:56:18;9.40;56.00
41116;DHT22;26861;51.824;4.682;2022-12-15T06:58:46;9.30;56.40
41116;DHT22;26861;51.824;4.682;2022-12-15T07:01:12;9.30;55.80
41116;DHT22;26861;51.824;4.682;2022-12-15T07:03:39;9.30;56.50
41116;DHT22;26861;51.824;4.682;2022-12-15T07:06:07;9.30;56.10
41116;DHT22;26861;51.824;4.682;2022-12-15T07:08:33;9.30;56.00
41116;DHT22;26861;51.824;4.682;2022-12-15T07:11:02;9.30;56.00
41116;DHT22;26861;51.824;4.682;2022-12-15T07:13:28;9.30;56.00
41116;DHT22;26861;51.824;4.682;2022-12-15T07:15:53;9.30;56.10
41116;DHT22;26861;51.824;4.682;2022-12-15T07:18:19;9.20;56.10
41116;DHT22;26861;51.824;4.682;2022-12-15T07:20:45;9.30;56.20
41116;DHT22;26861;51.824;4.682;2022-12-15T07:23:10;9.30;56.20
41116;DHT22;26861;51.824;4.682;2022-12-15T07:25:36;9.30;56.20
41116;DHT22;26861;51.824;4.682;2022-12-15T07:28:02;9.30;56.20
41116;DHT22;26861;51.824;4.682;2022-12-15T07:30:28;9.30;73.10
41116;DHT22;26861;51.824;4.682;2022-12-15T07:32:54;9.30;56.10
41116;DHT22;26861;51.824;4.682;2022-12-15T07:35:20;9.30;56.20
41116;DHT22;26861;51.824;4.682;2022-12-15T07:37:46;9.30;56.10
41116;DHT22;26861;51.824;4.682;2022-12-15T07:40:12;9.30;56.20
41116;DHT22;26861;51.824;4.682;2022-12-15T07:42:38;9.30;56.20
41116;DHT22;26861;51.824;4.682;2022-12-15T07:45:04;9.30;56.40
41116;DHT22;26861;51.824;4.682;2022-12-15T07:47:31;9.30;56.70
41116;DHT22;26861;51.824;4.682;2022-12-15T07:49:56;9.30;57.00
41116;DHT22;26861;51.824;4.682;2022-12-15T07:54:48;9.30;56.70
41116;DHT22;26861;51.824;4.682;2022-12-15T07:57:14;9.30;57.50
41116;DHT22;26861;51.824;4.682;2022-12-15T07:59:40;9.30;57.50
41116;DHT22;26861;51.824;4.682;2022-12-15T08:02:09;9.30;57.50
41116;DHT22;26861;51.824;4.682;2022-12-15T08:04:34;9.40;57.40
41116;DHT22;26861;51.824;4.682;2022-12-15T08:07:00;9.50;57.50
41116;DHT22;26861;51.824;4.682;2022-12-15T08:09:25;9.40;57.60
41116;DHT22;26861;51.824;4.682;2022-12-15T08:11:51;9.50;57.50
41116;DHT22;26861;51.824;4.682;2022-12-15T08:14:17;9.40;57.50
41116;DHT22;26861;51.824;4.682;2022-12-15T08:16:42;9.70;75.60
41116;DHT22;26861;51.824;4.682;2022-12-15T08:19:13;9.50;75.50
41116;DHT22;26861;51.824;4.682;2022-12-15T08:21:41;9.40;57.40
41116;DHT22;26861;51.824;4.682;2022-12-15T08:24:07;9.50;57.30
41116;DHT22;26861;51.824;4.682;2022-12-15T08:26:34;9.40;57.30
41116;DHT22;26861;51.824;4.682;2022-12-15T08:29:01;9.40;57.40
41116;DHT22;26861;51.824;4.682;2022-12-15T08:31:28;9.60;75.70
41116;DHT22;26861;51.824;4.682;2022-12-15T08:33:56;9.60;57.30
41116;DHT22;26861;51.824;4.682;2022-12-15T08:36:22;9.50;57.30
41116;DHT22;26861;51.824;4.682;2022-12-15T08:38:48;9.50;57.30
41116;DHT22;26861;51.824;4.682;2022-12-15T08:41:17;9.50;57.80
41116;DHT22;26861;51.824;4.682;2022-12-15T08:43:44;9.50;57.20
41116;DHT22;26861;51.824;4.682;2022-12-15T08:46:10;9.50;57.20
41116;DHT22;26861;51.824;4.682;2022-12-15T08:48:37;9.50;57.20
41116;DHT22;26861;51.824;4.682;2022-12-15T08:51:03;9.60;57.30
41116;DHT22;26861;51.824;4.682;2022-12-15T08:53:29;9.50;57.10
41116;DHT22;26861;51.824;4.682;2022-12-15T08:55:54;9.60;57.20
41116;DHT22;26861;51.824;4.682;2022-12-15T08:58:20;9.60;57.30
41116;DHT22;26861;51.824;4.682;2022-12-15T09:03:12;9.60;56.70
41116;DHT22;26861;51.824;4.682;2022-12-15T09:08:04;9.60;56.60
41116;DHT22;26861;51.824;4.682;2022-12-15T09:10:30;9.60;57.20
41116;DHT22;26861;51.824;4.682;2022-12-15T09:12:56;9.60;57.10
41116;DHT22;26861;51.824;4.682;2022-12-15T09:15:21;9.60;57.10
41116;DHT22;26861;51.824;4.682;2022-12-15T09:17:47;9.70;57.10
41116;DHT22;26861;51.824;4.682;2022-12-15T09:20:13;9.70;57.00
41116;DHT22;26861;51.824;4.682;2022-12-15T09:22:42;9.70;56.90
41116;DHT22;26861;51.824;4.682;2022-12-15T09:25:08;9.70;56.80
41116;DHT22;26861;51.824;4.682;2022-12-15T09:27:34;9.70;56.90
41116;DHT22;26861;51.824;4.682;2022-12-15T09:30:01;9.70;56.80
41116;DHT22;26861;51.824;4.682;2022-12-15T09:32:26;9.80;56.80
41116;DHT22;26861;51.824;4.682;2022-12-15T09:34:52;9.70;56.70
41116;DHT22;26861;51.824;4.682;2022-12-15T09:37:18;9.80;56.70
41116;DHT22;26861;51.824;4.682;2022-12-15T09:39:44;9.80;56.60
41116;DHT22;26861;51.824;4.682;2022-12-15T09:42:23;9.80;56.60
41116;DHT22;26861;51.824;4.682;2022-12-15T09:44:56;9.80;56.70
41116;DHT22;26861;51.824;4.682;2022-12-15T09:47:39;9.80;56.70
41116;DHT22;26861;51.824;4.682;2022-12-15T09:50:10;9.80;56.80
41116;DHT22;26861;51.824;4.682;2022-12-15T09:52:52;9.80;56.90
41116;DHT22;26861;51.824;4.682;2022-12-15T09:55:24;9.80;56.90
41116;DHT22;26861;51.824;4.682;2022-12-15T09:58:05;9.80;56.90
41116;DHT22;26861;51.824;4.682;2022-12-15T10:00:48;9.90;56.90
41116;DHT22;26861;51.824;4.682;2022-12-15T10:03:47;9.90;56.90
41116;DHT22;26861;51.824;4.682;2022-12-15T10:06:27;10.00;56.80
41116;DHT22;26861;51.824;4.682;2022-12-15T10:08:57;10.00;56.90
41116;DHT22;26861;51.824;4.682;2022-12-15T10:19:38;10.20;56.70
41116;DHT22;26861;51.824;4.682;2022-12-15T10:22:04;10.20;56.60
41116;DHT22;26861;51.824;4.682;2022-12-15T10:24:31;10.20;57.20
41116;DHT22;26861;51.824;4.682;2022-12-15T10:35:27;10.40;56.30
41116;DHT22;26861;51.824;4.682;2022-12-15T10:37:57;10.50;56.30
41116;DHT22;26861;51.824;4.682;2022-12-15T10:40:46;10.50;56.20
41116;DHT22;26861;51.824;4.682;2022-12-15T10:43:16;10.60;56.30
41116;DHT22;26861;51.824;4.682;2022-12-15T10:45:47;10.40;56.10
41116;DHT22;26861;51.824;4.682;2022-12-15T10:48:19;10.60;56.20
41116;DHT22;26861;51.824;4.682;2022-12-15T10:50:45;10.60;56.20
41116;DHT22;26861;51.824;4.682;2022-12-15T10:53:33;10.80;56.00
41116;DHT22;26861;51.824;4.682;2022-12-15T10:56:05;10.70;56.00
41116;DHT22;26861;51.824;4.682;2022-12-15T10:58:31;10.80;55.90
41116;DHT22;26861;51.824;4.682;2022-12-15T11:01:08;10.80;55.80
41116;DHT22;26861;51.824;4.682;2022-12-15T11:03:39;10.90;56.40
41116;DHT22;26861;51.824;4.682;2022-12-15T11:06:17;11.00;55.60
41116;DHT22;26861;51.824;4.682;2022-12-15T11:08:43;11.00;55.60
41116;DHT22;26861;51.824;4.682;2022-12-15T11:11:44;11.10;55.60
41116;DHT22;26861;51.824;4.682;2022-12-15T11:14:42;11.20;55.40
41116;DHT22;26861;51.824;4.682;2022-12-15T11:17:17;11.30;55.40
41116;DHT22;26861;51.824;4.682;2022-12-15T11:19:59;11.40;55.50
41116;DHT22;26861;51.824;4.682;2022-12-15T11:22:50;11.30;55.30
41116;DHT22;26861;51.824;4.682;2022-12-15T11:25:37;11.40;55.30
41116;DHT22;26861;51.824;4.682;2022-12-15T11:28:13;11.50;55.30
41116;DHT22;26861;51.824;4.682;2022-12-15T11:30:49;11.50;55.20
41116;DHT22;26861;51.824;4.682;2022-12-15T11:33:17;11.60;55.20
41116;DHT22;26861;51.824;4.682;2022-12-15T11:38:54;11.60;55.10
41116;DHT22;26861;51.824;4.682;2022-12-15T11:41:34;11.60;55.20
41116;DHT22;26861;51.824;4.682;2022-12-15T11:44:17;11.70;55.10
41116;DHT22;26861;51.824;4.682;2022-12-15T11:55:34;11.60;55.20
41116;DHT22;26861;51.824;4.682;2022-12-15T12:00:29;11.60;55.10
41116;DHT22;26861;51.824;4.682;2022-12-15T12:08:49;11.70;55.30
41116;DHT22;26861;51.824;4.682;2022-12-15T12:11:41;11.70;55.50
41116;DHT22;26861;51.824;4.682;2022-12-15T12:14:22;11.80;55.40
41116;DHT22;26861;51.824;4.682;2022-12-15T12:17:33;11.80;55.70
41116;DHT22;26861;51.824;4.682;2022-12-15T12:22:55;11.80;55.60
41116;DHT22;26861;51.824;4.682;2022-12-15T12:25:23;11.80;55.60
41116;DHT22;26861;51.824;4.682;2022-12-15T12:28:04;11.80;55.60
41116;DHT22;26861;51.824;4.682;2022-12-15T12:30:45;11.90;55.60
41116;DHT22;26861;51.824;4.682;2022-12-15T12:35:51;11.90;55.60
41116;DHT22;26861;51.824;4.682;2022-12-15T12:38:25;12.00;55.10
41116;DHT22;26861;51.824;4.682;2022-12-15T12:43:37;12.00;55.60
41116;DHT22;26861;51.824;4.682;2022-12-15T12:46:23;12.00;55.50
41116;DHT22;26861;51.824;4.682;2022-12-15T12:51:37;12.10;55.60
41116;DHT22;26861;51.824;4.682;2022-12-15T13:07:55;12.00;56.30
41116;DHT22;26861;51.824;4.682;2022-12-15T13:10:23;12.00;56.30
41116;DHT22;26861;51.824;4.682;2022-12-15T13:12:51;12.00;56.40
41116;DHT22;26861;51.824;4.682;2022-12-15T13:17:55;12.10;56.30
41116;DHT22;26861;51.824;4.682;2022-12-15T13:20:27;12.10;56.20
41116;DHT22;26861;51.824;4.682;2022-12-15T13:22:53;12.10;56.30
41116;DHT22;26861;51.824;4.682;2022-12-15T13:25:33;12.10;56.30
41116;DHT22;26861;51.824;4.682;2022-12-15T13:28:11;12.20;56.20
41116;DHT22;26861;51.824;4.682;2022-12-15T13:33:24;12.20;56.20
41116;DHT22;26861;51.824;4.682;2022-12-15T13:35:51;12.30;56.30
41116;DHT22;26861;51.824;4.682;2022-12-15T13:38:18;12.30;55.70
41116;DHT22;26861;51.824;4.682;2022-12-15T13:43:47;12.30;56.40
41116;DHT22;26861;51.824;4.682;2022-12-15T13:46:21;12.30;56.40
41116;DHT22;26861;51.824;4.682;2022-12-15T13:48:52;12.30;56.40
41116;DHT22;26861;51.824;4.682;2022-12-15T13:51:37;12.40;56.30
41116;DHT22;26861;51.824;4.682;2022-12-15T13:54:22;12.30;56.10
41116;DHT22;26861;51.824;4.682;2022-12-15T13:59:27;12.40;57.00
41116;DHT22;26861;51.824;4.682;2022-12-15T14:01:53;12.40;56.30
41116;DHT22;26861;51.824;4.682;2022-12-15T14:04:20;12.40;56.00
41116;DHT22;26861;51.824;4.682;2022-12-15T14:06:47;12.40;56.50
41116;DHT22;26861;51.824;4.682;2022-12-15T14:09:15;12.40;56.60
41116;DHT22;26861;51.824;4.682;2022-12-15T14:11:44;12.40;56.50
41116;DHT22;26861;51.824;4.682;2022-12-15T14:14:25;12.40;56.50
41116;DHT22;26861;51.824;4.682;2022-12-15T14:16:56;12.40;56.40
41116;DHT22;26861;51.824;4.682;2022-12-15T14:19:23;12.40;56.70
41116;DHT22;26861;51.824;4.682;2022-12-15T14:21:49;12.40;56.80
41116;DHT22;26861;51.824;4.682;2022-12-15T14:26:47;12.40;56.90
41116;DHT22;26861;51.824;4.682;2022-12-15T14:29:12;12.40;57.00
41116;DHT22;26861;51.824;4.682;2022-12-15T14:31:39;12.40;57.10
41116;DHT22;26861;51.824;4.682;2022-12-15T14:34:10;12.50;57.10
41116;DHT22;26861;51.824;4.682;2022-12-15T14:36:39;12.40;57.30
41116;DHT22;26861;51.824;4.682;2022-12-15T14:39:11;12.40;57.30
41116;DHT22;26861;51.824;4.682;2022-12-15T14:41:42;12.30;57.10
41116;DHT22;26861;51.824;4.682;2022-12-15T14:44:28;12.30;57.60
41116;DHT22;26861;51.824;4.682;2022-12-15T14:46:55;12.30;57.60
41116;DHT22;26861;51.824;4.682;2022-12-15T14:49:24;12.30;57.70
41116;DHT22;26861;51.824;4.682;2022-12-15T14:51:59;12.40;57.80
41116;DHT22;26861;51.824;4.682;2022-12-15T14:54:29;12.30;57.80
41116;DHT22;26861;51.824;4.682;2022-12-15T14:56:59;12.30;58.00
41116;DHT22;26861;51.824;4.682;2022-12-15T14:59:30;12.30;58.00
41116;DHT22;26861;51.824;4.682;2022-12-15T15:02:18;12.30;58.10
41116;DHT22;26861;51.824;4.682;2022-12-15T15:04:55;12.20;58.10
41116;DHT22;26861;51.824;4.682;2022-12-15T15:07:21;12.20;58.00
41116;DHT22;26861;51.824;4.682;2022-12-15T15:09:48;12.20;58.30
41116;DHT22;26861;51.824;4.682;2022-12-15T15:12:23;12.30;58.30
41116;DHT22;26861;51.824;4.682;2022-12-15T15:14:58;12.20;57.80
41116;DHT22;26861;51.824;4.682;2022-12-15T15:17:38;12.20;58.30
41116;DHT22;26861;51.824;4.682;2022-12-15T15:20:20;12.20;58.40
41116;DHT22;26861;51.824;4.682;2022-12-15T15:28:07;12.20;58.10
41116;DHT22;26861;51.824;4.682;2022-12-15T15:30:44;12.10;58.50
41116;DHT22;26861;51.824;4.682;2022-12-15T15:33:11;12.20;58.60
41116;DHT22;26861;51.824;4.682;2022-12-15T15:35:39;12.10;58.10
41116;DHT22;26861;51.824;4.682;2022-12-15T15:38:16;12.10;58.70
41116;DHT22;26861;51.824;4.682;2022-12-15T15:40:51;12.10;58.60
41116;DHT22;26861;51.824;4.682;2022-12-15T15:43:17;12.10;58.70
41116;DHT22;26861;51.824;4.682;2022-12-15T15:45:44;12.10;58.80
41116;DHT22;26861;51.824;4.682;2022-12-15T15:48:16;12.10;58.70
41116;DHT22;26861;51.824;4.682;2022-12-15T15:50:43;12.10;58.70
41116;DHT22;26861;51.824;4.682;2022-12-15T15:53:16;12.10;58.80
41116;DHT22;26861;51.824;4.682;2022-12-15T15:55:43;12.10;58.80
41116;DHT22;26861;51.824;4.682;2022-12-15T15:58:12;12.00;58.70
41116;DHT22;26861;51.824;4.682;2022-12-15T16:00:38;12.00;58.70
41116;DHT22;26861;51.824;4.682;2022-12-15T16:03:04;12.00;58.60
41116;DHT22;26861;51.824;4.682;2022-12-15T16:05:30;12.00;58.80
41116;DHT22;26861;51.824;4.682;2022-12-15T16:07:56;12.00;58.60
41116;DHT22;26861;51.824;4.682;2022-12-15T16:12:51;12.00;58.20
41116;DHT22;26861;51.824;4.682;2022-12-15T16:15:22;11.90;58.10
41116;DHT22;26861;51.824;4.682;2022-12-15T16:20:18;11.90;58.10
41116;DHT22;26861;51.824;4.682;2022-12-15T16:22:47;11.80;58.60
41116;DHT22;26861;51.824;4.682;2022-12-15T16:25:36;11.80;58.50
41116;DHT22;26861;51.824;4.682;2022-12-15T16:28:04;11.80;58.40
41116;DHT22;26861;51.824;4.682;2022-12-15T16:33:00;11.80;57.90
41116;DHT22;26861;51.824;4.682;2022-12-15T16:35:26;11.80;58.40
41116;DHT22;26861;51.824;4.682;2022-12-15T16:37:52;11.80;58.50
41116;DHT22;26861;51.824;4.682;2022-12-15T16:40:24;11.80;58.40
41116;DHT22;26861;51.824;4.682;2022-12-15T16:45:19;11.70;76.60
41116;DHT22;26861;51.824;4.682;2022-12-15T16:47:46;11.70;58.40
41116;DHT22;26861;51.824;4.682;2022-12-15T16:50:13;11.70;58.90
41116;DHT22;26861;51.824;4.682;2022-12-15T16:52:41;11.70;58.30
41116;DHT22;26861;51.824;4.682;2022-12-15T16:55:18;11.70;57.80
41116;DHT22;26861;51.824;4.682;2022-12-15T16:57:44;11.70;58.30
41116;DHT22;26861;51.824;4.682;2022-12-15T17:00:16;11.70;58.30
41116;DHT22;26861;51.824;4.682;2022-12-15T17:02:41;11.70;58.20
41116;DHT22;26861;51.824;4.682;2022-12-15T17:05:07;11.60;58.20
41116;DHT22;26861;51.824;4.682;2022-12-15T17:07:33;11.60;58.10
41116;DHT22;26861;51.824;4.682;2022-12-15T17:09:59;11.70;58.20
41116;DHT22;26861;51.824;4.682;2022-12-15T17:14:51;11.60;78.00
41116;DHT22;26861;51.824;4.682;2022-12-15T17:17:18;11.70;58.00
41116;DHT22;26861;51.824;4.682;2022-12-15T17:19:43;11.60;58.00
41116;DHT22;26861;51.824;4.682;2022-12-15T17:22:13;11.60;58.10
41116;DHT22;26861;51.824;4.682;2022-12-15T17:24:41;11.60;58.10
41116;DHT22;26861;51.824;4.682;2022-12-15T17:27:14;11.60;58.00
41116;DHT22;26861;51.824;4.682;2022-12-15T17:29:46;11.60;58.00
41116;DHT22;26861;51.824;4.682;2022-12-15T17:32:12;11.50;57.90
41116;DHT22;26861;51.824;4.682;2022-12-15T17:34:37;11.50;58.00
41116;DHT22;26861;51.824;4.682;2022-12-15T17:37:04;11.50;58.00
41116;DHT22;26861;51.824;4.682;2022-12-15T17:39:32;11.80;78.10
41116;DHT22;26861;51.824;4.682;2022-12-15T17:41:59;11.50;58.10
41116;DHT22;26861;51.824;4.682;2022-12-15T17:44:27;11.50;58.10
41116;DHT22;26861;51.824;4.682;2022-12-15T17:46:53;11.60;58.00
41116;DHT22;26861;51.824;4.682;2022-12-15T17:49:19;11.60;57.70
41116;DHT22;26861;51.824;4.682;2022-12-15T17:51:46;11.70;57.70
41116;DHT22;26861;51.824;4.682;2022-12-15T17:54:14;11.60;57.60
41116;DHT22;26861;51.824;4.682;2022-12-15T17:56:42;11.70;57.50
41116;DHT22;26861;51.824;4.682;2022-12-15T17:59:14;11.80;57.60
41116;DHT22;26861;51.824;4.682;2022-12-15T18:01:40;11.70;57.50
41116;DHT22;26861;51.824;4.682;2022-12-15T18:04:09;11.70;57.50
41116;DHT22;26861;51.824;4.682;2022-12-15T18:06:36;11.80;57.60
41116;DHT22;26861;51.824;4.682;2022-12-15T18:09:03;11.70;77.10
41116;DHT22;26861;51.824;4.682;2022-12-15T18:11:29;11.80;57.60
41116;DHT22;26861;51.824;4.682;2022-12-15T18:13:55;11.80;57.70
41116;DHT22;26861;51.824;4.682;2022-12-15T18:16:21;11.80;57.50
41116;DHT22;26861;51.824;4.682;2022-12-15T18:18:46;11.80;57.60
41116;DHT22;26861;51.824;4.682;2022-12-15T18:21:13;11.80;57.60
41116;DHT22;26861;51.824;4.682;2022-12-15T18:23:40;11.80;57.60
41116;DHT22;26861;51.824;4.682;2022-12-15T18:28:34;11.80;57.00
41116;DHT22;26861;51.824;4.682;2022-12-15T18:31:05;11.70;57.50
41116;DHT22;26861;51.824;4.682;2022-12-15T18:33:34;11.80;57.40